Time;durP1;ratioP1;P1;durP2;ratioP2;P2;SDS_P1;SDS_P2;PMS_P1;PMS_P2;Temp;Humidity;BMP_temperature;BMP_pressure;BME280_temperature;BME280_humidity;BME280_pressure;Samples;Min_cycle;Max_cycle;Signal;HPM_P1;HPM_P2
2022/04/06 00:01:45;;;;;;;;;;;;;;;13.98;62.04;100319.16;5055590;28;19987;-75
2022/04/06 00:04:10;;;;;;;;;;;;;;;14.45;61.12;100316.47;5054714;28;19993;-76
2022/04/06 00:06:36;;;;;;;;;;;;;;;14.32;61.26;100308.84;5081501;28;19920;-77
2022/04/06 00:09:13;;;;;;;;;;;;;;;14.69;59.95;100306.84;5054186;28;19970;-75
2022/04/06 00:11:38;;;;;;;;;;;;;;;13.88;62.11;100310.97;5052401;28;19921;-76
2022/04/06 00:14:04;;;;;;;;;;;;;;;14.25;61.29;100302.03;5054949;28;20383;-76
2022/04/06 00:16:29;;;;;;;;;;;;;;;14.66;60.25;100303.88;5055201;28;20332;-77
2022/04/06 00:18:55;;;;;;;;;;;;;;;14.43;60.33;100304.28;5055093;28;20004;-78
2022/04/06 00:21:23;;;;;;;;;;;;;;;14.27;60.58;100299.88;5055190;28;19923;-76
2022/04/06 00:23:48;;;;;;;;;;;;;;;14.00;60.93;100299.97;5055054;28;19924;-78
2022/04/06 00:26:14;;;;;;;;;;;;;;;14.08;60.93;100302.19;5054845;28;20364;-75
2022/04/06 00:28:39;;;;;;;;;;;;;;;14.22;60.74;100303.34;5055141;28;20335;-76
2022/04/06 00:31:04;;;;;;;;;;;;;;;14.45;60.21;100292.13;5055004;28;19920;-76
2022/04/06 00:33:30;;;;;;;;;;;;;;;14.15;60.94;100294.66;5055246;28;20013;-76
2022/04/06 00:35:56;;;;;;;;;;;;;;;14.13;61.13;100299.53;5054699;28;19928;-76
2022/04/06 00:38:21;;;;;;;;;;;;;;;14.25;60.08;100296.63;5055092;28;20015;-76
2022/04/06 00:40:46;;;;;;;;;;;;;;;14.88;58.55;100290.94;5055117;28;20388;-78
2022/04/06 00:43:12;;;;;;;;;;;;;;;14.44;59.95;100304.03;5087196;28;19917;-77
2022/04/06 00:45:41;;;;;;;;;;;;;;;14.00;61.21;100299.97;5052743;28;20403;-77
2022/04/06 00:48:07;;;;;;;;;;;;;;;14.19;60.41;100294.97;5054909;28;19916;-76
2022/04/06 00:50:33;;;;;;;;;;;;;;;14.68;59.12;100282.78;5054775;28;20266;-76
2022/04/06 00:52:59;;;;;;;;;;;;;;;14.28;59.87;100280.72;5054986;28;19908;-77
2022/04/06 00:55:26;;;;;;;;;;;;;;;14.57;59.48;100287.31;5054743;28;19982;-76
2022/04/06 00:57:51;;;;;;;;;;;;;;;14.21;59.98;100280.09;5052514;28;19916;-79
2022/04/06 01:00:17;;;;;;;;;;;;;;;14.03;60.47;100278.63;5052513;28;19966;-76
2022/04/06 01:02:42;;;;;;;;;;;;;;;14.80;58.14;100270.63;5054408;28;19923;-77
2022/04/06 01:05:07;;;;;;;;;;;;;;;14.13;59.99;100275.22;5054010;28;19924;-78
2022/04/06 01:07:49;;;;;;;;;;;;;;;14.50;58.87;100261.63;5054867;28;19958;-77
2022/04/06 01:10:15;;;;;;;;;;;;;;;14.43;59.12;100275.38;5055277;28;20003;-76
2022/04/06 01:12:40;;;;;;;;;;;;;;;14.54;58.48;100271.66;5052846;28;19947;-77
2022/04/06 01:15:07;;;;;;;;;;;;;;;14.62;58.81;100263.00;5054050;28;19923;-77
2022/04/06 01:17:33;;;;;;;;;;;;;;;14.78;58.01;100263.88;5054354;28;19916;-78
2022/04/06 01:20:00;;;;;;;;;;;;;;;14.22;59.44;100262.00;5052758;28;20303;-79
2022/04/06 01:22:26;;;;;;;;;;;;;;;15.11;57.08;100262.59;5054937;28;19909;-77
2022/04/06 01:24:51;;;;;;;;;;;;;;;14.50;58.47;100259.72;5069369;28;20544;-77
2022/04/06 01:27:16;;;;;;;;;;;;;;;15.32;56.42;100254.22;5073927;28;19916;-77
2022/04/06 01:29:43;;;;;;;;;;;;;;;14.27;59.15;100257.41;5061434;28;19916;-77
2022/04/06 01:32:18;;;;;;;;;;;;;;;14.28;58.45;100252.88;5053805;28;19921;-76
2022/04/06 01:34:44;;;;;;;;;;;;;;;14.73;57.77;100247.63;5055201;28;19909;-76
2022/04/06 01:37:10;;;;;;;;;;;;;;;14.33;58.59;100250.19;5056041;28;19917;-77
2022/04/06 01:39:54;;;;;;;;;;;;;;;14.50;58.10;100257.03;5056465;28;19913;-76
2022/04/06 01:42:20;;;;;;;;;;;;;;;14.90;57.42;100248.19;5055684;28;19916;-77
2022/04/06 01:44:46;;;;;;;;;;;;;;;14.07;59.33;100260.84;5056731;28;19928;-79
2022/04/06 01:47:13;;;;;;;;;;;;;;;14.45;59.03;100254.28;5055380;28;19924;-78
2022/04/06 01:52:22;;;;;;;;;;;;;;;14.07;59.47;100247.31;5055026;28;19963;-77
2022/04/06 01:54:48;;;;;;;;;;;;;;;13.82;60.54;100244.47;5053210;28;19920;-79
2022/04/06 01:57:14;;;;;;;;;;;;;;;14.49;58.49;100249.16;5055986;28;19916;-77
2022/04/06 01:59:41;;;;;;;;;;;;;;;14.50;58.64;100239.97;5056036;28;19923;-77
2022/04/06 02:02:07;;;;;;;;;;;;;;;14.33;59.26;100248.28;5054221;28;19969;-79
2022/04/06 02:04:33;;;;;;;;;;;;;;;14.61;58.87;100245.16;5055406;28;19916;-77
2022/04/06 02:06:58;;;;;;;;;;;;;;;14.82;57.98;100224.38;5055913;28;19923;-77
2022/04/06 02:09:24;;;;;;;;;;;;;;;14.23;59.79;100228.50;5054104;28;19923;-78
2022/04/06 02:11:50;;;;;;;;;;;;;;;14.34;60.00;100231.00;5054127;28;19920;-76
2022/04/06 02:14:16;;;;;;;;;;;;;;;14.86;58.20;100215.47;5055152;28;19944;-79
2022/04/06 02:16:42;;;;;;;;;;;;;;;14.98;58.17;100213.31;5056606;28;19917;-80
2022/04/06 02:19:07;;;;;;;;;;;;;;;14.58;59.11;100215.13;5054600;28;19919;-78
2022/04/06 02:21:33;;;;;;;;;;;;;;;14.83;58.47;100207.91;5054005;28;19954;-80
2022/04/06 02:23:58;;;;;;;;;;;;;;;14.12;61.08;100206.00;5085758;28;19939;-77
2022/04/06 02:26:23;;;;;;;;;;;;;;;14.52;59.52;100211.63;5053193;28;19920;-78
2022/04/06 02:28:48;;;;;;;;;;;;;;;14.99;58.34;100216.84;5054059;28;20464;-77
2022/04/06 02:31:14;;;;;;;;;;;;;;;15.01;58.76;100208.44;5053647;28;19919;-78
2022/04/06 02:33:39;;;;;;;;;;;;;;;14.77;59.10;100200.84;5051902;28;19999;-78
2022/04/06 02:36:04;;;;;;;;;;;;;;;14.41;60.73;100206.41;5054663;28;19920;-78
2022/04/06 02:38:30;;;;;;;;;;;;;;;14.22;60.93;100208.75;5057689;28;19913;-78
2022/04/06 02:40:55;;;;;;;;;;;;;;;14.58;60.26;100199.72;5058198;28;20046;-80
2022/04/06 02:43:20;;;;;;;;;;;;;;;14.46;60.76;100207.28;5058473;28;19917;-78
2022/04/06 02:45:47;;;;;;;;;;;;;;;15.03;58.85;100190.03;5059123;28;19916;-81
2022/04/06 02:48:12;;;;;;;;;;;;;;;15.07;58.83;100191.94;5060393;28;19917;-78
2022/04/06 02:50:37;;;;;;;;;;;;;;;14.45;60.07;100191.28;5058511;28;19916;-79
2022/04/06 02:53:03;;;;;;;;;;;;;;;14.55;59.76;100197.53;5056792;28;19962;-78
2022/04/06 02:55:28;;;;;;;;;;;;;;;14.95;58.36;100194.94;5059093;28;19920;-77
2022/04/06 02:57:53;;;;;;;;;;;;;;;14.77;59.30;100190.03;5056955;28;19937;-81
2022/04/06 03:00:18;;;;;;;;;;;;;;;14.70;59.31;100181.34;5054926;28;19916;-78
2022/04/06 03:02:44;;;;;;;;;;;;;;;15.20;57.60;100183.28;5057462;28;20269;-78
2022/04/06 03:05:09;;;;;;;;;;;;;;;14.71;59.30;100180.28;5056846;28;20074;-78
2022/04/06 03:07:35;;;;;;;;;;;;;;;15.13;58.05;100176.53;5057644;28;19913;-78
2022/04/06 03:10:00;;;;;;;;;;;;;;;14.83;57.99;100171.91;5056023;28;19916;-79
2022/04/06 03:12:26;;;;;;;;;;;;;;;14.78;58.93;100178.13;5054567;28;19923;-79
2022/04/06 03:14:51;;;;;;;;;;;;;;;14.24;59.75;100181.47;5055766;28;19939;-79
2022/04/06 03:17:16;;;;;;;;;;;;;;;14.38;58.64;100180.75;5055956;28;19940;-78
2022/04/06 03:19:42;;;;;;;;;;;;;;;14.46;58.66;100177.53;5057291;28;19920;-76
2022/04/06 03:22:07;;;;;;;;;;;;;;;14.57;57.98;100170.22;5058235;28;19940;-78
2022/04/06 03:24:32;;;;;;;;;;;;;;;14.36;58.67;100182.09;5056259;28;19913;-78
2022/04/06 03:26:58;;;;;;;;;;;;;;;14.51;58.46;100164.00;5056529;28;19966;-77
2022/04/06 03:29:23;;;;;;;;;;;;;;;14.55;58.66;100162.41;5056574;28;20373;-79
2022/04/06 03:31:48;;;;;;;;;;;;;;;14.70;57.76;100161.63;5056892;28;19934;-78
2022/04/06 03:34:13;;;;;;;;;;;;;;;14.45;57.95;100158.84;5056209;28;19939;-76
2022/04/06 03:36:39;;;;;;;;;;;;;;;14.55;57.46;100154.28;5056103;28;20303;-78
2022/04/06 03:39:04;;;;;;;;;;;;;;;14.37;58.54;100146.66;5088643;28;19916;-77
2022/04/06 03:41:29;;;;;;;;;;;;;;;14.23;58.79;100144.72;5056662;28;19935;-79
2022/04/06 03:43:54;;;;;;;;;;;;;;;14.34;58.29;100144.50;5056153;28;20322;-79
2022/04/06 03:46:20;;;;;;;;;;;;;;;14.19;58.17;100154.44;5055812;28;20276;-78
2022/04/06 03:48:45;;;;;;;;;;;;;;;14.28;58.28;100159.09;5055320;28;19913;-78
2022/04/06 03:51:10;;;;;;;;;;;;;;;14.62;57.00;100143.22;5053359;28;19920;-79
2022/04/06 03:53:35;;;;;;;;;;;;;;;14.20;57.60;100145.25;5055210;28;19924;-80
2022/04/06 03:56:01;;;;;;;;;;;;;;;14.75;56.35;100138.09;5055039;28;19928;-78
2022/04/06 03:58:26;;;;;;;;;;;;;;;14.58;56.54;100147.53;5055632;28;19912;-79
2022/04/06 04:00:52;;;;;;;;;;;;;;;14.53;56.81;100142.09;5055000;28;19924;-80
2022/04/06 04:03:17;;;;;;;;;;;;;;;14.75;56.11;100140.78;5055989;28;20288;-79
2022/04/06 04:05:42;;;;;;;;;;;;;;;14.13;57.68;100140.91;5040229;28;20018;-81
2022/04/06 04:08:08;;;;;;;;;;;;;;;14.24;57.33;100146.34;5034368;28;19936;-77
2022/04/06 04:10:33;;;;;;;;;;;;;;;14.19;57.72;100143.63;5033671;28;19974;-80
2022/04/06 04:12:58;;;;;;;;;;;;;;;14.40;57.07;100148.84;5047859;28;19916;-78
2022/04/06 04:15:24;;;;;;;;;;;;;;;13.88;57.97;100151.59;5087366;28;19956;-77
2022/04/06 04:17:49;;;;;;;;;;;;;;;14.18;57.23;100150.09;5087895;28;19917;-79
2022/04/06 04:20:14;;;;;;;;;;;;;;;14.81;55.53;100136.19;5051256;28;19917;-80
2022/04/06 04:22:39;;;;;;;;;;;;;;;14.83;55.60;100131.34;5036028;28;20513;-78
2022/04/06 04:25:06;;;;;;;;;;;;;;;14.30;56.65;100134.50;5033630;28;19929;-80
2022/04/06 04:27:31;;;;;;;;;;;;;;;15.12;53.64;100128.88;5034952;28;20010;-80
2022/04/06 04:29:57;;;;;;;;;;;;;;;14.85;54.85;100127.28;5035263;28;20580;-78
2022/04/06 04:32:22;;;;;;;;;;;;;;;14.04;56.35;100125.47;5035046;28;19924;-78
2022/04/06 04:34:48;;;;;;;;;;;;;;;14.40;55.86;100126.41;5034752;28;19966;-80
2022/04/06 04:37:13;;;;;;;;;;;;;;;15.15;53.49;100131.88;5035436;28;19920;-81
2022/04/06 04:39:38;;;;;;;;;;;;;;;14.56;54.93;100137.00;5033887;28;19920;-79
2022/04/06 04:42:04;;;;;;;;;;;;;;;14.08;55.72;100123.84;5035203;28;20035;-78
2022/04/06 04:44:30;;;;;;;;;;;;;;;14.79;54.26;100125.66;5035004;28;19913;-77
2022/04/06 04:46:55;;;;;;;;;;;;;;;14.27;55.83;100129.59;5053546;28;20333;-78
2022/04/06 04:49:20;;;;;;;;;;;;;;;14.61;54.44;100115.34;5054811;28;20102;-77
2022/04/06 04:51:45;;;;;;;;;;;;;;;14.43;54.79;100121.28;5054603;28;20376;-78
2022/04/06 04:54:11;;;;;;;;;;;;;;;14.25;55.28;100119.03;5054454;28;19951;-78
2022/04/06 04:56:36;;;;;;;;;;;;;;;14.58;54.48;100115.91;5053659;28;20070;-79
2022/04/06 04:59:02;;;;;;;;;;;;;;;14.47;54.16;100119.66;5053994;28;19917;-77
2022/04/06 05:01:27;;;;;;;;;;;;;;;14.46;54.17;100109.94;5054560;28;19967;-79
2022/04/06 05:03:53;;;;;;;;;;;;;;;14.58;53.85;100107.81;5054739;28;19913;-80
2022/04/06 05:06:18;;;;;;;;;;;;;;;14.18;54.83;100104.97;5054570;28;20022;-82
2022/04/06 05:08:43;;;;;;;;;;;;;;;14.74;53.00;100103.22;5054806;28;20392;-78
2022/04/06 05:11:08;;;;;;;;;;;;;;;14.49;54.07;100106.69;5053493;28;19925;-80
2022/04/06 05:13:34;;;;;;;;;;;;;;;14.93;52.42;100110.50;5054474;28;19916;-80
2022/04/06 05:15:59;;;;;;;;;;;;;;;14.40;53.91;100108.31;5052452;28;19970;-80
2022/04/06 05:18:26;;;;;;;;;;;;;;;14.32;54.41;100105.31;5053672;28;19917;-80
2022/04/06 05:20:53;;;;;;;;;;;;;;;14.31;53.96;100104.50;5053332;28;20026;-81
2022/04/06 05:23:18;;;;;;;;;;;;;;;14.25;53.79;100105.53;5054163;28;19916;-81
2022/04/06 05:25:43;;;;;;;;;;;;;;;14.40;53.87;100100.19;5054557;28;19942;-82
2022/04/06 05:28:08;;;;;;;;;;;;;;;14.60;53.15;100107.53;5053977;28;19925;-80
2022/04/06 05:30:34;;;;;;;;;;;;;;;14.38;52.67;100101.53;5053951;28;19916;-81
2022/04/06 05:32:59;;;;;;;;;;;;;;;14.81;52.51;100099.16;5087018;28;19928;-83
2022/04/06 05:35:26;;;;;;;;;;;;;;;14.36;53.95;100101.00;5054072;28;20384;-80
2022/04/06 05:37:52;;;;;;;;;;;;;;;14.27;53.74;100107.97;5052112;28;19917;-80
2022/04/06 05:40:18;;;;;;;;;;;;;;;14.27;53.87;100103.38;5051713;28;19909;-82
2022/04/06 05:42:44;;;;;;;;;;;;;;;14.58;52.89;100094.28;5053944;28;19922;-83
2022/04/06 05:45:09;;;;;;;;;;;;;;;14.39;53.63;100101.25;5063628;28;20283;-82
2022/04/06 05:47:35;;;;;;;;;;;;;;;14.97;51.72;100097.25;5066534;28;20011;-80
2022/04/06 05:50:10;;;;;;;;;;;;;;;13.82;54.68;100100.53;5055978;28;19912;-81
2022/04/06 05:52:35;;;;;;;;;;;;;;;14.13;53.98;100087.94;5054701;28;19947;-80
2022/04/06 05:55:01;;;;;;;;;;;;;;;14.90;51.72;100091.28;5054507;28;19920;-83
2022/04/06 05:57:26;;;;;;;;;;;;;;;14.59;52.45;100081.56;5054350;28;20336;-78
2022/04/06 05:59:51;;;;;;;;;;;;;;;14.63;52.57;100072.63;5053576;28;19916;-80
2022/04/06 06:02:18;;;;;;;;;;;;;;;14.64;52.50;100087.75;5053061;28;19939;-83
2022/04/06 06:04:44;;;;;;;;;;;;;;;14.40;53.46;100078.56;5053520;28;19944;-80
2022/04/06 06:07:10;;;;;;;;;;;;;;;14.45;52.88;100073.16;5054923;28;19916;-80
2022/04/06 06:09:36;;;;;;;;;;;;;;;14.34;53.02;100095.88;5052860;28;20012;-79
2022/04/06 06:12:02;;;;;;;;;;;;;;;14.49;52.96;100084.25;5053026;28;20572;-81
2022/04/06 06:14:27;;;;;;;;;;;;;;;14.63;52.45;100075.34;5054368;28;20349;-81
2022/04/06 06:16:52;;;;;;;;;;;;;;;14.27;53.60;100076.34;5048297;28;19981;-77
2022/04/06 06:19:17;;;;;;;;;;;;;;;14.00;54.70;100091.97;5054573;28;19915;-77
2022/04/06 06:21:43;;;;;;;;;;;;;;;14.12;53.94;100087.13;5052379;28;20015;-78
2022/04/06 06:24:08;;;;;;;;;;;;;;;14.12;54.19;100081.72;5053416;28;19920;-77
2022/04/06 06:26:34;;;;;;;;;;;;;;;13.98;54.11;100078.72;5054176;28;19923;-77
2022/04/06 06:28:59;;;;;;;;;;;;;;;14.79;52.62;100079.69;5054681;28;19917;-81
2022/04/06 06:31:25;;;;;;;;;;;;;;;14.10;54.27;100073.91;5055961;28;20276;-80
2022/04/06 06:33:51;;;;;;;;;;;;;;;13.85;54.82;100083.81;5054652;28;19975;-79
2022/04/06 06:36:16;;;;;;;;;;;;;;;14.64;53.59;100071.53;5054838;28;20349;-80
2022/04/06 06:38:41;;;;;;;;;;;;;;;14.20;53.80;100075.81;5055630;28;19925;-82
2022/04/06 06:41:25;;;;;;;;;;;;;;;14.11;54.48;100069.31;5053301;28;19917;-80
2022/04/06 06:43:53;;;;;;;;;;;;;;;14.53;53.39;100069.94;5054663;28;20311;-79
2022/04/06 06:46:19;;;;;;;;;;;;;;;14.76;52.84;100069.38;5053530;28;19916;-82
2022/04/06 06:48:45;;;;;;;;;;;;;;;15.34;51.69;100059.00;5052411;28;19913;-80
2022/04/06 06:51:10;;;;;;;;;;;;;;;15.26;51.98;100067.69;5053471;28;19924;-82
2022/04/06 06:53:36;;;;;;;;;;;;;;;14.45;53.79;100075.03;5053799;28;19917;-79
2022/04/06 06:56:01;;;;;;;;;;;;;;;15.13;52.33;100069.09;5051180;28;20470;-76
2022/04/06 06:58:26;;;;;;;;;;;;;;;14.41;53.99;100063.97;5052479;28;20365;-77
2022/04/06 07:00:52;;;;;;;;;;;;;;;15.02;52.67;100066.69;5053635;28;19917;-78
2022/04/06 07:03:17;;;;;;;;;;;;;;;14.41;54.38;100066.66;5051807;28;19960;-80
2022/04/06 07:05:42;;;;;;;;;;;;;;;14.37;54.16;100062.09;5042520;28;19921;-75
2022/04/06 07:08:08;;;;;;;;;;;;;;;14.67;53.73;100059.38;5075046;28;19955;-80
2022/04/06 07:10:33;;;;;;;;;;;;;;;15.09;52.90;100057.19;5051718;28;19960;-78
2022/04/06 07:12:59;;;;;;;;;;;;;;;14.73;53.51;100059.13;5051540;28;20315;-77
2022/04/06 07:15:25;;;;;;;;;;;;;;;15.51;51.65;100051.41;5049050;28;20011;-78
2022/04/06 07:17:54;;;;;;;;;;;;;;;14.72;53.70;100065.59;5079661;28;19931;-79
2022/04/06 07:20:21;;;;;;;;;;;;;;;14.37;54.94;100060.19;5051405;28;20011;-77
2022/04/06 07:22:46;;;;;;;;;;;;;;;14.52;54.41;100059.38;5054644;28;20332;-77
2022/04/06 07:25:12;;;;;;;;;;;;;;;14.79;53.45;100049.91;5056195;28;19909;-78
2022/04/06 07:27:38;;;;;;;;;;;;;;;14.83;53.52;100059.13;5055194;28;20293;-81
2022/04/06 07:30:05;;;;;;;;;;;;;;;14.75;53.91;100051.53;5055124;28;19916;-81
2022/04/06 07:32:31;;;;;;;;;;;;;;;14.87;54.19;100057.50;5055343;28;19976;-79
2022/04/06 07:34:56;;;;;;;;;;;;;;;14.28;55.21;100042.06;5054294;28;20353;-78
2022/04/06 07:37:22;;;;;;;;;;;;;;;14.79;53.85;100043.69;5054518;28;20007;-80
2022/04/06 07:39:47;;;;;;;;;;;;;;;14.56;54.50;100039.66;5052930;28;19917;-75
2022/04/06 07:42:12;;;;;;;;;;;;;;;14.86;53.56;100034.22;5052221;28;19924;-78
2022/04/06 07:44:37;;;;;;;;;;;;;;;14.78;53.41;100040.16;5053413;28;19917;-74
2022/04/06 07:47:03;;;;;;;;;;;;;;;15.01;53.22;100027.97;5050874;28;19916;-78
2022/04/06 07:49:28;;;;;;;;;;;;;;;15.24;52.27;100024.66;5052446;28;19920;-75
2022/04/06 07:51:53;;;;;;;;;;;;;;;15.32;52.20;100028.69;5052358;28;20349;-77
2022/04/06 07:54:18;;;;;;;;;;;;;;;14.52;54.01;100033.16;5052723;28;19970;-77
2022/04/06 07:56:44;;;;;;;;;;;;;;;14.51;54.36;100030.72;5051472;28;19931;-78
2022/04/06 07:59:09;;;;;;;;;;;;;;;15.17;52.78;100031.47;5052386;28;19916;-77
2022/04/06 08:01:34;;;;;;;;;;;;;;;15.25;52.80;100028.19;5052845;28;20372;-76
2022/04/06 08:03:59;;;;;;;;;;;;;;;15.77;50.86;100042.91;5052989;28;19913;-76
2022/04/06 08:06:25;;;;;;;;;;;;;;;14.63;53.40;100034.78;5051505;28;19939;-79
2022/04/06 08:08:52;;;;;;;;;;;;;;;15.20;52.27;100036.31;5053586;28;20281;-77
2022/04/06 08:11:18;;;;;;;;;;;;;;;14.79;53.43;100032.88;5052067;28;19921;-74
2022/04/06 08:13:43;;;;;;;;;;;;;;;14.81;52.98;100046.94;5054597;28;19931;-77
2022/04/06 08:16:09;;;;;;;;;;;;;;;15.25;51.80;100045.22;5052856;28;20352;-79
2022/04/06 08:18:34;;;;;;;;;;;;;;;14.63;54.41;100032.06;5052883;28;19912;-79
2022/04/06 08:21:00;;;;;;;;;;;;;;;15.21;52.67;100030.66;5051424;28;19917;-77
2022/04/06 08:23:25;;;;;;;;;;;;;;;14.28;55.08;100029.38;5052512;28;19919;-76
2022/04/06 08:25:51;;;;;;;;;;;;;;;14.84;53.72;100028.25;5052566;28;19951;-77
2022/04/06 08:28:17;;;;;;;;;;;;;;;14.70;54.03;100042.63;5053364;28;19917;-78
2022/04/06 08:30:47;;;;;;;;;;;;;;;15.44;51.93;100029.22;5052915;28;19924;-74
2022/04/06 08:33:12;;;;;;;;;;;;;;;14.64;53.96;100022.88;5051427;28;19920;-71
2022/04/06 08:35:38;;;;;;;;;;;;;;;15.11;53.29;100027.13;5051786;28;20477;-70
2022/04/06 08:38:04;;;;;;;;;;;;;;;15.35;52.90;100028.94;5052386;28;19941;-79
2022/04/06 08:40:33;;;;;;;;;;;;;;;14.46;55.09;100028.84;5053893;28;19967;-78
2022/04/06 08:42:59;;;;;;;;;;;;;;;14.88;54.65;100020.41;5054216;28;20412;-77
2022/04/06 08:45:24;;;;;;;;;;;;;;;14.56;56.04;100025.31;5052591;28;20055;-76
2022/04/06 08:47:51;;;;;;;;;;;;;;;14.79;56.31;100025.56;5051590;28;20297;-74
2022/04/06 08:50:17;;;;;;;;;;;;;;;14.53;58.05;100004.22;5053251;28;19923;-80
2022/04/06 08:52:44;;;;;;;;;;;;;;;14.53;58.32;100006.91;5053664;28;19908;-76
2022/04/06 08:55:09;;;;;;;;;;;;;;;14.41;59.13;100004.50;5051873;28;19992;-77
2022/04/06 08:57:35;;;;;;;;;;;;;;;14.30;59.00;100000.19;5052850;28;19927;-75
2022/04/06 09:00:02;;;;;;;;;;;;;;;14.76;58.19;100009.88;5052593;28;20375;-75
2022/04/06 09:02:27;;;;;;;;;;;;;;;14.24;59.37;100005.81;5052905;28;19916;-75
2022/04/06 09:04:54;;;;;;;;;;;;;;;13.83;60.46;100015.75;5052802;28;19920;-75
2022/04/06 09:07:23;;;;;;;;;;;;;;;14.10;59.90;100014.47;5052345;28;19913;-74
2022/04/06 09:09:50;;;;;;;;;;;;;;;14.73;58.13;100012.31;5051601;28;20019;-77
2022/04/06 09:12:21;;;;;;;;;;;;;;;14.64;58.19;99995.03;5045475;28;20423;-75
2022/04/06 09:14:47;;;;;;;;;;;;;;;14.41;58.87;100003.69;5051887;28;19917;-74
2022/04/06 09:17:17;;;;;;;;;;;;;;;14.42;58.52;99999.91;5050117;28;19927;-75
2022/04/06 09:19:46;;;;;;;;;;;;;;;14.98;57.36;100007.69;5051012;28;19943;-74
2022/04/06 09:22:11;;;;;;;;;;;;;;;14.51;58.58;99995.56;5051610;28;19920;-74
2022/04/06 09:24:37;;;;;;;;;;;;;;;15.21;56.57;99989.22;5050965;28;20419;-75
2022/04/06 09:27:03;;;;;;;;;;;;;;;14.86;57.17;99990.09;5051910;28;19963;-75
2022/04/06 09:29:29;;;;;;;;;;;;;;;14.73;57.71;99990.69;5051351;28;19979;-78
2022/04/06 09:31:54;;;;;;;;;;;;;;;14.61;58.13;99995.56;5052331;28;19961;-75
2022/04/06 09:34:20;;;;;;;;;;;;;;;14.78;58.25;99996.91;5052080;28;19948;-80
2022/04/06 09:36:46;;;;;;;;;;;;;;;14.69;58.36;99998.53;5052731;28;19921;-77
2022/04/06 09:39:11;;;;;;;;;;;;;;;14.62;59.09;99997.19;5052640;28;19948;-78
2022/04/06 09:41:55;;;;;;;;;;;;;;;14.19;59.80;100000.41;5052924;28;19917;-80
2022/04/06 09:50:08;;;;;;;;;;;;;;;14.63;58.46;99999.63;5052328;28;20332;-76
2022/04/06 09:52:35;;;;;;;;;;;;;;;14.38;59.13;100004.22;5051165;28;19912;-81
2022/04/06 09:55:05;;;;;;;;;;;;;;;14.73;58.44;99998.81;5053178;28;20446;-79
2022/04/06 09:57:31;;;;;;;;;;;;;;;14.67;58.13;99987.19;5052300;28;19917;-75
2022/04/06 09:59:57;;;;;;;;;;;;;;;15.21;56.49;99976.50;5050769;28;19916;-76
2022/04/06 10:02:23;;;;;;;;;;;;;;;15.04;57.20;99975.19;5050472;28;20020;-77
2022/04/06 10:04:49;;;;;;;;;;;;;;;14.71;57.95;99980.16;5079734;28;19921;-75
2022/04/06 10:07:15;;;;;;;;;;;;;;;14.56;58.76;99965.84;5051941;28;20420;-79
2022/04/06 10:09:41;;;;;;;;;;;;;;;14.60;58.69;99975.03;5050791;28;20003;-75
2022/04/06 10:12:07;;;;;;;;;;;;;;;15.39;56.37;99978.56;5051395;28;19960;-77
2022/04/06 10:14:34;;;;;;;;;;;;;;;14.94;57.30;99957.91;5050313;28;19959;-76
2022/04/06 10:16:59;;;;;;;;;;;;;;;15.33;56.41;99965.34;5051505;28;19924;-75
2022/04/06 10:19:30;;;;;;;;;;;;;;;14.69;58.43;99955.28;5051954;28;20269;-76
2022/04/06 10:22:18;;;;;;;;;;;;;;;15.06;57.56;99964.91;5051473;28;19931;-75
2022/04/06 10:25:03;;;;;;;;;;;;;;;14.80;58.54;99956.84;5050990;28;19938;-74
2022/04/06 10:27:31;;;;;;;;;;;;;;;14.92;58.49;99967.38;5051118;28;20035;-74
2022/04/06 10:30:05;;;;;;;;;;;;;;;14.72;59.22;99970.16;5051306;28;19912;-74
2022/04/06 10:32:34;;;;;;;;;;;;;;;14.92;58.33;99953.84;5049140;28;20498;-74
2022/04/06 10:35:18;;;;;;;;;;;;;;;14.61;58.91;99980.16;5048492;28;19916;-73
2022/04/06 10:37:47;;;;;;;;;;;;;;;15.15;58.03;99938.91;5051871;28;20438;-76
2022/04/06 10:40:12;;;;;;;;;;;;;;;15.13;58.25;99952.72;5051597;28;19917;-76
2022/04/06 10:42:38;;;;;;;;;;;;;;;15.11;57.83;99948.66;5049171;28;19921;-75
2022/04/06 10:45:05;;;;;;;;;;;;;;;14.79;58.85;99935.50;5049060;28;20031;-77
2022/04/06 10:47:33;;;;;;;;;;;;;;;15.18;58.11;99933.75;5050472;28;19963;-77
2022/04/06 10:50:07;;;;;;;;;;;;;;;14.89;59.09;99939.00;5050239;28;20280;-77
2022/04/06 10:52:33;;;;;;;;;;;;;;;15.36;57.67;99945.84;5050793;28;19920;-75
2022/04/06 10:55:07;;;;;;;;;;;;;;;14.75;59.65;99939.84;5049586;28;19917;-77
2022/04/06 10:57:52;;;;;;;;;;;;;;;14.68;59.87;99942.81;5054207;28;19925;-77
2022/04/06 11:00:17;;;;;;;;;;;;;;;14.72;59.72;99948.50;5050061;28;20295;-73
2022/04/06 11:02:47;;;;;;;;;;;;;;;15.14;58.48;99945.38;5055051;28;19916;-76
2022/04/06 11:05:12;;;;;;;;;;;;;;;15.24;57.78;99929.94;5054436;28;19913;-77
2022/04/06 11:10:28;;;;;;;;;;;;;;;15.98;56.29;99926.28;5055594;28;19923;-78
2022/04/06 11:12:58;;;;;;;;;;;;;;;15.36;58.15;99925.00;5054643;28;19921;-77
2022/04/06 11:15:32;;;;;;;;;;;;;;;15.38;57.93;99928.25;5054544;28;20083;-77
2022/04/06 11:17:57;;;;;;;;;;;;;;;15.49;58.41;99926.31;5054669;28;19965;-80
2022/04/06 11:20:29;;;;;;;;;;;;;;;15.43;58.94;99939.06;5055574;28;19921;-78
2022/04/06 11:22:56;;;;;;;;;;;;;;;15.68;59.02;99925.38;5057105;28;19912;-81
2022/04/06 11:25:23;;;;;;;;;;;;;;;15.75;59.08;99909.63;5050230;28;19967;-78
2022/04/06 11:27:49;;;;;;;;;;;;;;;15.84;58.33;99913.34;5046775;28;19921;-80
2022/04/06 11:30:18;;;;;;;;;;;;;;;15.02;60.54;99921.34;5046503;28;19917;-75
2022/04/06 11:32:57;;;;;;;;;;;;;;;15.47;59.50;99909.53;5052450;28;19983;-79
2022/04/06 11:35:30;;;;;;;;;;;;;;;16.06;57.51;99904.78;5051698;28;19928;-78
2022/04/06 11:37:55;;;;;;;;;;;;;;;15.51;58.85;99899.75;5049763;28;19908;-75
2022/04/06 11:40:22;;;;;;;;;;;;;;;16.45;56.65;99908.22;5051495;28;19920;-76
2022/04/06 11:42:48;;;;;;;;;;;;;;;16.04;57.41;99898.03;5051222;28;20012;-76
2022/04/06 11:45:20;;;;;;;;;;;;;;;15.83;57.65;99897.38;5050926;28;19916;-76
2022/04/06 11:47:51;;;;;;;;;;;;;;;15.91;57.80;99904.09;5050825;28;19944;-78
2022/04/06 11:50:16;;;;;;;;;;;;;;;15.85;58.06;99900.63;5074148;28;20382;-79
2022/04/06 11:52:44;;;;;;;;;;;;;;;15.32;59.67;99917.72;5049680;28;19913;-75
2022/04/06 11:55:10;;;;;;;;;;;;;;;15.77;59.55;99893.91;5050623;28;20387;-76
2022/04/06 11:57:48;;;;;;;;;;;;;;;15.67;60.18;99887.75;5047429;28;19916;-75
2022/04/06 12:00:17;;;;;;;;;;;;;;;16.04;59.03;99889.91;5050319;28;20003;-75
2022/04/06 12:02:46;;;;;;;;;;;;;;;15.26;61.38;99884.44;5049474;28;19948;-74
2022/04/06 12:05:11;;;;;;;;;;;;;;;16.38;58.01;99883.34;5049041;28;19917;-75
2022/04/06 12:07:37;;;;;;;;;;;;;;;15.14;60.87;99878.56;5050591;28;19909;-76
2022/04/06 12:10:05;;;;;;;;;;;;;;;15.65;59.93;99888.03;5050346;28;19963;-75
2022/04/06 12:12:30;;;;;;;;;;;;;;;15.72;59.29;99879.59;5050355;28;19928;-74
2022/04/06 12:14:56;;;;;;;;;;;;;;;16.06;58.56;99869.53;5052085;28;20446;-77
2022/04/06 12:17:21;;;;;;;;;;;;;;;16.00;58.34;99873.38;5051037;28;19937;-78
2022/04/06 12:19:47;;;;;;;;;;;;;;;15.62;59.10;99872.34;5050698;28;19978;-82
2022/04/06 12:22:12;;;;;;;;;;;;;;;16.44;57.26;99852.38;5051011;28;19999;-80
2022/04/06 12:24:38;;;;;;;;;;;;;;;16.25;57.54;99856.09;5051525;28;19969;-77
2022/04/06 12:27:03;;;;;;;;;;;;;;;15.77;58.22;99847.84;5048998;28;19916;-77
2022/04/06 12:29:29;;;;;;;;;;;;;;;15.85;58.48;99843.72;5048860;28;20329;-78
2022/04/06 12:31:54;;;;;;;;;;;;;;;15.97;57.65;99844.16;5049639;28;20459;-80
2022/04/06 12:34:27;;;;;;;;;;;;;;;16.68;56.30;99825.28;5051013;28;20379;-81
2022/04/06 12:36:52;;;;;;;;;;;;;;;15.25;59.98;99839.50;5049408;28;19928;-77
2022/04/06 12:39:18;;;;;;;;;;;;;;;16.54;56.68;99825.19;5052230;28;19912;-77
2022/04/06 12:41:51;;;;;;;;;;;;;;;15.84;57.62;99826.66;5052504;28;19916;-75
2022/04/06 12:44:16;;;;;;;;;;;;;;;15.99;57.73;99830.31;5050885;28;19990;-79
2022/04/06 12:46:43;;;;;;;;;;;;;;;16.11;57.53;99826.16;5047980;28;19917;-76
2022/04/06 12:49:20;;;;;;;;;;;;;;;15.90;58.22;99821.19;5051806;28;20438;-79